Flight Track Log - Related Links

Times and Time Zones

All times are in EDT time to prevent confusion due to time zone crossing. See the FLG4262 flight status page for this flight to view local times or setup timezone preferences in your user account.

Time Position Orientation Groundspeed Altitude Reporting Facility
EDT Latitude Longitude Course Direction KTS MPH feet Rate Location/Type
Sun 05:19:38 PM 42.1817 -76.0767 293° West 151 174 6,300  Level New York Center
Sun 05:20:38 PM 42.2089 -76.1656 292° West 194 223 8,800 2,250 Climbing New York Center
Sun 05:21:38 PM 42.2358 -76.2603 291° West 245 282 10,800 1,700 Climbing New York Center
Sun 05:22:38 PM 42.2703 -76.3669 294° West 286 329 12,200 1,450 Climbing New York Center
Sun 05:23:38 PM 42.3031 -76.4678 294° West 316 364 13,700 1,582 Climbing New York Center
Sun 05:24:09 PM 42.3214 -76.5331 291° West 327 376 14,600 1,548 Climbing Cleveland Center
Sun 05:25:11 PM 42.3567 -76.6517 292° West 339 390 16,100 1,452 Climbing Cleveland Center
Sun 05:26:13 PM 42.3936 -76.7722 293° West 347 399 17,600 1,355 Climbing Cleveland Center
Sun 05:27:15 PM 42.4269 -76.8903 291° West 339 390 18,900 1,258 Climbing Cleveland Center
Sun 05:28:17 PM 42.4703 -77.0347 292° West 347 399 20,200 1,113 Climbing Cleveland Center
Sun 05:29:19 PM 42.5053 -77.1567 291° West 349 402 21,200 919 Climbing Cleveland Center
Sun 05:30:21 PM 42.5419 -77.2792 292° West 351 404 22,100 823 Climbing Cleveland Center
Sun 05:31:23 PM 42.5697 -77.4072 286° West 360 414 22,900 774 Climbing Cleveland Center
Sun 05:32:25 PM 42.5775 -77.5494 274° West 350 403 23,700 677 Climbing Cleveland Center
Sun 05:33:27 PM 42.5847 -77.6844 274° West 355 409 24,300 581 Climbing Cleveland Center
Sun 05:34:29 PM 42.5919 -77.8208 274° West 365 420 24,900 576 Climbing Cleveland Center
Sun 05:35:32 PM 42.5989 -77.9600 274° West 368 423 25,500 528 Climbing Cleveland Center
Sun 05:36:34 PM 42.6072 -78.1272 274° West 369 425 26,000 242 Climbing Cleveland Center
Sun 05:37:36 PM 42.6133 -78.2689 273° West 373 429 26,000  Level Cleveland Center
Sun 05:38:38 PM 42.6208 -78.4175 274° West 386 444 26,000  Level Cleveland Center
Sun 05:39:40 PM 42.6289 -78.5681 274° West 400 460 26,000  Level Cleveland Center
Sun 05:40:42 PM 42.6356 -78.7181 274° West 400 460 26,000  Level Cleveland Center
Sun 05:41:44 PM 42.6406 -78.8697 273° West 404 465 26,000  Level Cleveland Center
Sun 05:42:46 PM 42.6481 -79.0511 273° West 404 465 26,000  Level Cleveland Center
Sun 05:43:48 PM 42.6539 -79.2036 273° West 404 465 26,000  Level Cleveland Center
Sun 05:44:50 PM 42.6603 -79.3592 273° West 413 475 26,000  Level Cleveland Center
Sun 05:45:52 PM 42.6661 -79.5119 273° West 407 468 26,000  Level Cleveland Center
Sun 05:46:54 PM 42.6711 -79.6692 273° West 416 479 26,000  Level Cleveland Center
Sun 05:47:57 PM 42.6758 -79.8247 272° West 415 478 26,000  Level Cleveland Center
Sun 05:48:59 PM 42.6800 -79.9964 272° West 414 476 26,000  Level Cleveland Center
Sun 05:50:01 PM 42.6839 -80.1519 272° West 410 472 26,000  Level Cleveland Center
Sun 05:51:03 PM 42.6897 -80.3092 273° West 412 474 26,000  Level Cleveland Center
Sun 05:52:05 PM 42.6942 -80.4889 272° West 406 467 26,000  Level Cleveland Center
Sun 05:53:07 PM 42.6986 -80.6358 272° West 390 449 26,000  Level Cleveland Center
Sun 05:54:09 PM 42.7031 -80.7839 272° West 390 449 26,000  Level Cleveland Center
Sun 05:55:11 PM 42.7003 -80.9292 269° West 386 444 26,000 -339 Level Cleveland Center
Sun 05:56:13 PM 42.6842 -81.0733 261° West 385 443 25,300 -823 Descending Cleveland Center
Sun 05:57:15 PM 42.6678 -81.2136 261° West 376 433 24,300 -1,065 Descending Cleveland Center
Sun 05:58:17 PM 42.6494 -81.3750 261° West 370 426 23,100 -1,065 Descending Cleveland Center
Sun 05:59:19 PM 42.6331 -81.5136 261° West 370 426 22,100 -960 Descending Cleveland Center
Sun 06:00:22 PM 42.6164 -81.6503 261° West 365 420 21,100 -960 Descending Cleveland Center
Sun 06:01:24 PM 42.6006 -81.7833 261° West 358 412 20,100 -919 Descending Cleveland Center
Sun 06:02:26 PM 42.5869 -81.9050 261° West 353 406 19,200 -1,016 Descending Cleveland Center
Sun 06:03:28 PM 42.5675 -82.0583 260° West 347 399 18,000 -1,016 Descending Cleveland Center
Sun 06:04:30 PM 42.5519 -82.1839 260° West 341 392 17,100 -1,200 Descending Cleveland Center
Sun 06:04:53 PM 42.5478 -82.2403 264° West 336 387 16,300 -1,645 Descending Cleveland Center
Sun 06:05:32 PM 42.5367 -82.3067 257° West 334 384 15,400 -1,607 Descending Cleveland Center
Sun 06:05:49 PM 42.5319 -82.3514 262° West 324 373 14,800 -1,645 Descending Cleveland Center
Sun 06:06:34 PM 42.5219 -82.4192 259° West 314 361 13,700 -1,574 Descending Cleveland Center
Sun 06:06:50 PM 42.5203 -82.4575 267° West 279 321 13,200 -1,355 Descending Cleveland Center
Sun 06:07:36 PM 42.5092 -82.5197 256° West 284 327 12,300 -985 Descending Cleveland Center
Sun 06:07:57 PM 42.5003 -82.5653 255° West 254 292 12,100 -290 Descending Cleveland Center
Sun 06:08:38 PM 42.4844 -82.6064 242° Southwest 258 297 12,000  Descending Cleveland Center
Sun 06:08:58 PM 42.4689 -82.6547 246° West 254 292 12,100  Climbing Cleveland Center
Sun 06:09:40 PM 42.4472 -82.7103 242° Southwest 254 292 12,000  Descending Cleveland Center
Sun 06:10:00 PM 42.4397 -82.7383 250° West 254 292 12,100  Climbing Cleveland Center
Sun 06:10:42 PM 42.4175 -82.7961 242° Southwest 254 292 12,000  Descending Cleveland Center
Sun 06:11:01 PM 42.4058 -82.8300 245° Southwest 254 292 12,100  Climbing Cleveland Center
Sun 06:11:44 PM 42.3861 -82.8817 243° Southwest 254 292 12,000  Descending Cleveland Center
Sun 06:12:02 PM 42.3742 -82.9192 247° West 254 292 12,100  Climbing Cleveland Center
Sun 06:12:46 PM 42.3553 -82.9672 242° Southwest 254 292 12,000  Descending Cleveland Center
Sun 06:13:09 PM 42.3422 -83.0108 248° West 253 291 12,100  Climbing Cleveland Center
Sun 06:13:49 PM 42.3250 -83.0533 241° Southwest 254 292 12,000 -109 Descending Cleveland Center
Sun 06:14:04 PM 42.3194 -83.0922 259° West 255 293 12,000 -581 Level Cleveland Center
Sun 06:14:51 PM 42.3147 -83.1456 263° West 251 289 11,400 -964 Descending Cleveland Center
Sun 06:15:00 PM 42.3128 -83.1789 266° West 254 292 11,100 -387 Descending Cleveland Center
Sun 06:15:53 PM 42.3081 -83.2500 265° West 249 287 11,000  Descending Cleveland Center
Sun 06:16:07 PM 42.3044 -83.2878 263° West 255 293 11,100  Climbing Cleveland Center
Sun 06:16:55 PM 42.3006 -83.3458 265° West 252 290 11,000 -109 Descending Cleveland Center
Sun 06:17:02 PM 42.2956 -83.3742 257° West 242 278 11,000 -194 Level Cleveland Center
Sun 06:17:57 PM 42.2644 -83.4178 226° Southwest 235 270 10,800 -658 Descending Cleveland Center
Sun 06:18:15 PM 42.2461 -83.4433 226° Southwest 216 249 10,200 -1,452 Descending Cleveland Center
Sun 06:18:59 PM 42.2064 -83.4758 211° Southwest 222 255 9,300 -1,179 Descending Cleveland Center
Sun 06:19:11 PM 42.1989 -83.4844 220° Southwest 230 265 9,100 -968 Descending Cleveland Center
Sun 06:20:01 PM 42.1539 -83.5189 210° Southwest 221 254 8,300 -984 Descending Cleveland Center
Sun 06:20:12 PM 42.1450 -83.5303 224° Southwest 213 245 8,100 -194 Descending Cleveland Center
Sun 06:21:03 PM 42.1053 -83.5625 211° Southwest 204 235 8,100  Level Cleveland Center
Sun 06:21:19 PM 42.0933 -83.5736 215° Southwest 201 231 8,100 -97 Level Cleveland Center
Sun 06:22:05 PM 42.0625 -83.6033 216° Southwest 211 243 8,000  Descending Cleveland Center
Sun 06:22:20 PM 42.0428 -83.6281 223° Southwest 217 250 8,100  Climbing Cleveland Center
Sun 06:23:07 PM 42.0175 -83.6550 218° Southwest 212 244 8,000 -97 Descending Cleveland Center
Sun 06:23:22 PM 41.9989 -83.6781 223° Southwest 207 238 8,000 -774 Level Cleveland Center
Sun 06:24:09 PM 41.9542 -83.6786 181° South 208 239 7,200 -857 Descending Cleveland Center
Sun 06:24:18 PM 41.9464 -83.6817 196° South 206 237 7,200 -871 Level Cleveland Center
Sun 06:25:11 PM 41.9233 -83.6286 120° Southeast 207 238 6,300 -1,100 Descending Cleveland Center
Sun 06:25:18 PM 41.9283 -83.6172 59° Northeast 205 236 6,100 -290 Descending Cleveland Center
Sun 06:26:13 PM 41.9514 -83.5653 59° Northeast 199 229 6,000 -564 Descending Cleveland Center
Sun 06:27:15 PM 42.0075 -83.5242 29° Northeast 208 239 5,000 -985 Descending Cleveland Center
Sun 06:27:20 PM 42.0136 -83.5228 10° North 196 226 4,900 -857 Descending Cleveland Center
Sun 06:28:18 PM 42.0475 -83.4956 31° Northeast 193 222 4,100 -984 Descending Cleveland Center
Sun 06:28:21 PM 42.0603 -83.4872 26° Northeast 182 209 3,900 -1,065 Descending Cleveland Center
Sun 06:29:20 PM 42.0989 -83.4575 30° Northeast 180 207 3,000 -968 Descending Cleveland Center
Sun 06:29:23 PM 42.1047 -83.4569 North 175 201 2,900 -871 Descending Cleveland Center
Sun 06:30:22 PM 42.1406 -83.4283 31° Northeast 175 201 2,100 -885 Descending Cleveland Center
Sun 06:30:24 PM 42.1450 -83.4261 20° North 136 157 2,000 -677 Descending Cleveland Center
Sun 06:31:24 PM 42.1703 -83.4047 32° Northeast 145 167 1,400 -689 Descending Cleveland Center
Sun 06:31:25 PM 42.1761 -83.4022 18° North 131 151 1,300 -581 Descending Cleveland Center
Sun 06:32:26 PM 42.2053 -83.3800 29° Northeast 136 157 800 -492 Descending Cleveland Center

Login

Don't have an account? Register now (free) for customized features, flight alerts, and more!